KSDY/SDY METAR and TAF weather

Enter ICAO airport designator
Station Type Date Time Source
KSDY METAR 2019/10/22 15:56 UTC NOAA

KSDY 221556Z AUTO 00000KT 10SM CLR 03/01 A2992 RMK AO2 SLP528 T00280006


Station Type Date Time Source
KSDY Decoded METAR 2019/10/22 15:56 UTC NOAA

Sidney-Richland, MT, United States (KSDY) 47-42N 104-12W
Oct 22, 2019 - 11:56 AM EDT / 2019.10.22 1556 UTC
Wind: Calm:0
Visibility: 10 mile(s):0
Sky conditions: clear
Temperature: 37.0 F (2.8 C)
Dew Point: 33.1 F (0.6 C)
Relative Humidity: 85%
Pressure (altimeter): 29.92 in. Hg (1013 hPa)
ob: KSDY 221556Z AUTO 00000KT 10SM CLR 03/01 A2992 RMK AO2 SLP528 T00280006
cycle: 16

Station Type Date Time Source
KSDY TAF 2019/10/22 12:36 UTC NOAA

TAF KSDY 221134Z 2212/2312 VRB04KT P6SM FEW060
FM230300 VRB03KT 6SM -SHRA OVC026
FM230600 VRB06KT 6SM -SHSNRA OVC010
FM230800 VRB06KT 4SM -SHSN OVC006
FM230900 VRB06KT 6SM BR OVC012

Example: see airport list